Time;durP1;ratioP1;P1;durP2;ratioP2;P2;SDS_P1;SDS_P2;PMS_P1;PMS_P2;Temp;Humidity;BMP_temperature;BMP_pressure;BME280_temperature;BME280_humidity;BME280_pressure;Samples;Min_cycle;Max_cycle;Signal;HPM_P1;HPM_P2
2022/12/16 00:00:02;;;;;;;85.13;44.10;;;6.10;99.90;;;5.96;73.54;94818.28;5081927;28;20504;-55
2022/12/16 00:02:29;;;;;;;85.00;44.60;;;6.10;99.90;;;5.98;73.25;94811.19;5078802;28;20466;-59
2022/12/16 00:04:58;;;;;;;92.87;48.17;;;6.10;99.90;;;6.00;73.61;94820.59;5082259;28;21014;-56
2022/12/16 00:07:25;;;;;;;88.63;44.90;;;6.10;99.90;;;6.03;73.45;94828.22;5078252;28;20823;-58
2022/12/16 00:09:52;;;;;;;80.43;45.50;;;6.20;99.90;;;6.03;73.13;94822.97;5082450;28;20465;-54
2022/12/16 00:12:19;;;;;;;88.67;46.00;;;6.20;99.90;;;6.02;72.81;94803.03;5078684;28;20450;-59
2022/12/16 00:14:46;;;;;;;101.73;50.77;;;6.20;99.90;;;6.04;73.38;94801.16;5082422;28;20474;-59
2022/12/16 00:17:14;;;;;;;92.57;50.00;;;6.20;99.90;;;6.05;73.13;94809.81;5079005;28;20830;-56
2022/12/16 00:19:41;;;;;;;97.93;51.03;;;6.20;99.90;;;6.04;72.90;94809.00;5077162;28;20485;-56
2022/12/16 00:22:10;;;;;;;122.20;57.40;;;6.20;99.90;;;6.05;73.07;94807.19;5078671;28;20466;-54
2022/12/16 00:24:37;;;;;;;94.83;50.70;;;6.20;99.90;;;6.08;72.92;94802.56;5083031;28;20597;-58
2022/12/16 00:27:04;;;;;;;108.27;54.30;;;6.20;99.90;;;6.09;73.22;94799.03;5078582;28;21005;-56
2022/12/16 00:29:32;;;;;;;114.37;57.23;;;6.20;99.90;;;6.08;72.92;94813.03;5082532;28;20559;-57
2022/12/16 00:31:59;;;;;;;114.03;55.07;;;6.20;99.90;;;6.08;72.64;94809.59;5077709;28;20453;-58
2022/12/16 00:34:26;;;;;;;134.40;66.80;;;6.20;99.90;;;6.09;72.93;94816.47;5073459;28;20473;-56
2022/12/16 00:36:53;;;;;;;121.73;62.67;;;6.20;99.90;;;6.10;73.02;94818.13;5075812;28;20446;-57
2022/12/16 00:39:23;;;;;;;129.23;61.40;;;6.20;99.90;;;6.10;72.24;94811.16;5073530;28;20474;-59
2022/12/16 00:41:50;;;;;;;138.17;64.90;;;6.30;99.90;;;6.11;73.10;94811.97;5076186;28;20454;-58
2022/12/16 00:44:17;;;;;;;163.63;82.63;;;6.30;99.90;;;6.12;72.57;94812.78;5081432;28;20592;-58
2022/12/16 00:46:45;;;;;;;201.17;96.57;;;6.30;99.90;;;6.14;72.70;94805.69;5079445;28;20449;-57
2022/12/16 00:49:12;;;;;;;194.07;96.33;;;6.30;99.90;;;6.08;72.26;94813.03;5081471;28;20461;-55
2022/12/16 00:51:39;;;;;;;194.07;96.23;;;6.20;99.90;;;6.06;72.24;94796.66;5078911;28;20446;-58
2022/12/16 00:54:06;;;;;;;183.73;88.97;;;6.20;99.90;;;6.02;72.39;94813.47;5081347;28;20465;-56
2022/12/16 00:56:35;;;;;;;184.43;92.77;;;6.20;99.90;;;6.01;72.09;94816.19;5078684;28;20446;-55
2022/12/16 00:59:03;;;;;;;172.60;83.70;;;6.20;99.90;;;6.00;72.28;94804.94;5084370;28;20446;-59
2022/12/16 01:01:30;;;;;;;160.60;78.87;;;6.20;99.90;;;5.98;72.33;94801.63;5078594;28;20450;-56
2022/12/16 01:03:57;;;;;;;170.97;78.83;;;6.10;99.90;;;5.97;71.77;94812.16;5080958;28;20493;-54
2022/12/16 01:06:24;;;;;;;177.03;69.87;;;6.10;99.90;;;5.95;71.80;94801.81;5078806;28;20512;-60
2022/12/16 01:08:52;;;;;;;141.53;67.90;;;6.10;99.90;;;5.92;72.31;94791.59;5080958;28;20450;-56
2022/12/16 01:11:19;;;;;;;131.03;59.50;;;6.10;99.90;;;5.91;72.29;94805.59;5079036;28;21021;-56
2022/12/16 01:13:50;;;;;;;136.40;57.97;;;6.10;99.90;;;5.89;71.66;94810.91;5078340;28;20829;-59
2022/12/16 01:16:17;;;;;;;111.00;56.27;;;6.00;99.90;;;5.87;72.14;94812.81;5081094;28;20569;-55
2022/12/16 01:18:44;;;;;;;143.73;57.90;;;6.00;99.90;;;5.86;72.12;94811.13;5074305;28;20890;-55
2022/12/16 01:21:12;;;;;;;114.43;53.40;;;6.00;99.90;;;5.85;71.97;94812.06;5078657;28;20543;-57
2022/12/16 01:23:40;;;;;;;133.67;55.10;;;6.00;99.90;;;5.79;71.77;94799.47;5077703;28;20526;-56
2022/12/16 01:26:07;;;;;;;139.30;53.77;;;6.00;99.90;;;5.80;72.07;94808.16;5080491;28;20485;-58
2022/12/16 01:28:34;;;;;;;137.50;54.83;;;6.00;99.90;;;5.75;71.83;94804.09;5077587;28;20508;-56
2022/12/16 01:31:03;;;;;;;110.07;50.77;;;5.90;99.90;;;5.71;71.95;94784.38;5080102;28;20523;-57
2022/12/16 01:33:33;;;;;;;126.77;50.70;;;5.90;99.90;;;5.66;71.87;94793.50;5077639;28;20455;-55
2022/12/16 01:36:01;;;;;;;124.90;51.23;;;5.90;99.90;;;5.62;72.15;94790.25;5081040;28;20817;-56
2022/12/16 01:38:29;;;;;;;112.13;49.20;;;5.80;99.90;;;5.61;72.24;94793.84;5077671;28;20458;-58
2022/12/16 01:40:56;;;;;;;103.80;44.10;;;5.80;99.90;;;5.57;72.27;94808.03;5081431;28;20646;-55
2022/12/16 01:43:26;;;;;;;102.50;45.60;;;5.80;99.90;;;5.51;72.79;94772.78;5076952;28;20978;-56
2022/12/16 01:45:55;;;;;;;95.40;43.70;;;5.70;99.90;;;5.49;73.02;94779.06;5082099;28;20474;-56
2022/12/16 01:48:35;;;;;;;101.40;44.27;;;5.70;99.90;;;5.46;72.56;94774.91;5076541;28;20449;-58
2022/12/16 01:51:04;;;;;;;108.00;45.13;;;5.70;99.90;;;5.46;72.93;94766.25;5077988;28;20546;-56
2022/12/16 01:53:32;;;;;;;91.47;40.70;;;5.60;99.90;;;5.43;73.27;94780.34;5080110;28;20958;-59
2022/12/16 01:55:59;;;;;;;87.60;40.40;;;5.60;99.90;;;5.44;73.20;94786.38;5077586;28;20474;-59
2022/12/16 01:58:28;;;;;;;89.70;40.43;;;5.60;99.90;;;5.43;73.05;94788.16;5075566;28;20959;-58
2022/12/16 02:00:56;;;;;;;79.37;35.43;;;5.60;99.90;;;5.44;73.41;94782.03;5077439;28;21010;-56
2022/12/16 02:03:24;;;;;;;88.40;34.87;;;5.60;99.90;;;5.43;73.26;94790.78;5080817;28;20654;-57
2022/12/16 02:05:51;;;;;;;74.60;33.60;;;5.60;99.90;;;5.43;73.82;94756.88;5077334;28;20474;-56
2022/12/16 02:08:19;;;;;;;68.27;33.70;;;5.60;99.90;;;5.39;74.04;94753.66;5080648;28;20446;-58
2022/12/16 02:11:16;;;;;;;79.20;34.50;;;5.60;99.90;;;5.43;73.67;94749.03;5077424;28;20500;-58
2022/12/16 02:14:01;;;;;;;63.47;30.57;;;5.60;99.90;;;5.45;73.79;94741.94;5076996;28;20967;-55
2022/12/16 02:16:32;;;;;;;70.37;30.83;;;5.60;99.90;;;5.47;73.78;94760.06;5079094;28;20793;-59
2022/12/16 02:19:05;;;;;;;85.37;34.67;;;5.60;99.90;;;5.46;73.44;94733.16;5073225;28;20450;-59
2022/12/16 02:21:48;;;;;;;72.73;31.80;;;5.60;99.90;;;5.45;74.10;94751.53;5077302;28;20447;-60
2022/12/16 02:25:00;;;;;;;65.50;31.40;;;5.60;99.90;;;5.42;73.63;94746.53;5077881;28;20601;-56
2022/12/16 02:27:52;;;;;;;58.90;29.60;;;5.60;99.90;;;5.47;74.15;94749.66;5080132;28;20458;-55
2022/12/16 02:30:54;;;;;;;72.67;30.30;;;5.60;99.90;;;5.48;73.63;94757.34;5077864;28;20494;-60
2022/12/16 02:33:48;;;;;;;63.37;29.27;;;5.60;99.90;;;5.44;73.47;94740.28;5076778;28;20453;-59
2022/12/16 02:36:24;;;;;;;58.20;29.30;;;5.60;99.90;;;5.48;73.40;94762.56;5080998;28;20475;-59
2022/12/16 02:38:57;;;;;;;65.53;27.47;;;5.70;99.90;;;5.50;73.76;94759.84;5080200;28;20555;-55
2022/12/16 02:41:28;;;;;;;53.57;26.97;;;5.70;99.90;;;5.48;73.42;94770.41;5081072;28;20450;-55
2022/12/16 02:43:58;;;;;;;51.80;28.60;;;5.70;99.90;;;5.45;73.42;94764.59;5083778;28;20476;-56
2022/12/16 02:46:29;;;;;;;47.57;24.07;;;5.60;99.90;;;5.43;73.37;94756.06;5082247;28;20446;-56
2022/12/16 02:49:04;;;;;;;42.10;23.33;;;5.60;99.90;;;5.43;73.33;94782.13;5084630;28;20548;-55
2022/12/16 02:51:32;;;;;;;39.07;22.00;;;5.60;99.90;;;5.41;73.14;94779.63;5081031;28;20438;-56
2022/12/16 02:53:59;;;;;;;41.87;23.20;;;5.60;99.90;;;5.39;72.64;94774.53;5084510;28;20629;-55
2022/12/16 02:56:36;;;;;;;48.30;24.00;;;5.60;99.90;;;5.37;72.43;94788.59;5080452;28;20454;-53
2022/12/16 02:59:13;;;;;;;39.97;22.23;;;5.50;99.90;;;5.33;72.77;94781.94;5085168;28;20442;-56
2022/12/16 03:01:46;;;;;;;48.50;22.73;;;5.50;99.90;;;5.30;72.19;94801.25;5083171;28;20869;-55
2022/12/16 03:04:16;;;;;;;41.67;22.40;;;5.50;99.90;;;5.27;72.05;94783.22;5080513;28;20524;-58
2022/12/16 03:06:45;;;;;;;47.63;20.37;;;5.50;99.90;;;5.21;72.86;94778.44;5083242;28;20438;-58
2022/12/16 03:09:14;;;;;;;42.60;21.60;;;5.40;99.90;;;5.16;72.34;94764.91;5080794;28;20523;-58
2022/12/16 03:11:42;;;;;;;41.97;21.30;;;5.40;99.90;;;5.14;72.78;94764.19;5083545;28;20450;-61
2022/12/16 03:14:10;;;;;;;40.40;21.70;;;5.30;99.90;;;5.11;72.26;94759.19;5080797;28;20564;-60
2022/12/16 03:16:37;;;;;;;40.27;21.40;;;5.30;99.90;;;5.07;72.38;94752.53;5082703;28;20527;-55
2022/12/16 03:19:08;;;;;;;38.57;21.23;;;5.30;99.90;;;5.03;72.56;94747.56;5076060;28;20948;-60
2022/12/16 03:21:38;;;;;;;39.30;20.70;;;5.20;99.90;;;5.02;72.85;94747.66;5082750;28;20438;-54
2022/12/16 03:24:09;;;;;;;44.07;19.57;;;5.20;99.90;;;5.00;72.89;94752.97;5082011;28;20591;-59
2022/12/16 03:26:39;;;;;;;44.20;21.80;;;5.20;99.90;;;4.99;73.13;94740.88;5081157;28;20442;-59
2022/12/16 03:29:09;;;;;;;36.70;19.23;;;5.20;99.90;;;5.01;73.29;94740.78;5082192;28;20466;-55
2022/12/16 03:31:38;;;;;;;36.70;19.97;;;5.20;99.90;;;5.02;73.17;94740.66;5079238;28;20538;-59
2022/12/16 03:34:11;;;;;;;39.20;20.90;;;5.20;99.90;;;5.03;73.01;94768.41;5081628;28;20558;-56
2022/12/16 03:36:38;;;;;;;35.13;20.97;;;5.20;99.90;;;5.03;72.97;94783.19;5079614;28;20443;-58
2022/12/16 03:39:05;;;;;;;37.47;20.60;;;5.20;99.90;;;5.05;73.17;94786.53;5083367;28;20442;-58
2022/12/16 03:41:33;;;;;;;37.13;20.00;;;5.20;99.90;;;5.07;73.23;94783.81;5079494;28;20565;-55
2022/12/16 03:44:00;;;;;;;37.90;21.37;;;5.30;99.90;;;5.09;72.96;94774.94;5081178;28;20570;-56
2022/12/16 03:46:27;;;;;;;36.70;20.50;;;5.20;99.90;;;5.09;73.03;94774.94;5076097;28;20459;-59
2022/12/16 03:48:55;;;;;;;35.47;20.83;;;5.30;99.90;;;5.08;72.88;94765.47;5082356;28;20978;-56
2022/12/16 03:51:24;;;;;;;35.90;19.70;;;5.30;99.90;;;5.10;72.57;94779.22;5079653;28;20528;-59
2022/12/16 03:53:51;;;;;;;34.27;20.70;;;5.30;99.90;;;5.08;73.31;94780.25;5081695;28;20587;-59
2022/12/16 03:56:18;;;;;;;29.10;18.90;;;5.30;99.90;;;5.07;72.57;94789.84;5081038;28;20520;-59
2022/12/16 03:58:46;;;;;;;31.87;19.77;;;5.30;99.90;;;5.10;72.53;94791.44;5084714;28;20442;-56
2022/12/16 04:01:14;;;;;;;29.97;18.63;;;5.30;99.90;;;5.09;72.93;94781.94;5080503;28;21002;-55
2022/12/16 04:03:41;;;;;;;30.93;18.53;;;5.30;99.90;;;5.10;72.68;94778.41;5077285;28;20457;-55
2022/12/16 04:06:08;;;;;;;29.07;18.07;;;5.30;99.90;;;5.10;72.98;94778.41;5080666;28;20509;-59
2022/12/16 04:08:37;;;;;;;27.97;17.90;;;5.30;99.90;;;5.09;73.12;94771.50;5081770;28;20496;-56
2022/12/16 04:25:12;;;;;;;26.77;17.80;;;5.20;99.90;;;4.99;73.86;94776.53;5063580;28;20536;-60
2022/12/16 04:27:45;;;;;;;28.00;17.70;;;5.20;99.90;;;5.02;74.00;94777.16;5081422;28;20449;-59
2022/12/16 04:30:18;;;;;;;32.57;18.83;;;5.20;99.90;;;5.02;74.34;94773.72;5078381;28;20553;-60
